| time (UTC) | temp F | wind direction | speed knots | gust knots | rain 1hr in | rain 24hr in | rain mn in | humidity % | barometer mb |
| 20260507155546 | 59 | 196 | 5.2 | 9.6 | 0.00 | 0.00 | 0.00 | 60 | 1017.0 |
| 20260507155044 | 59 | 230 | 5.2 | 7.0 | 0.00 | 0.00 | 0.00 | 59 | 1017.0 |
| 20260507154540 | 59 | 224 | 5.2 | 7.0 | 0.00 | 0.00 | 0.00 | 61 | 1017.3 |
| 20260507154037 | 59 | 202 | 6.1 | 8.7 | 0.00 | 0.00 | 0.00 | 59 | 1017.3 |
| 20260507153534 | 59 | 221 | 5.2 | 7.8 | 0.00 | 0.00 | 0.00 | 62 | 1017.0 |
| 20260507153030 | 59 | 265 | 9.6 | 13.0 | 0.00 | 0.00 | 0.00 | 62 | 1017.3 |
| 20260507152526 | 58 | 233 | 4.3 | 5.2 | 0.00 | 0.00 | 0.00 | 65 | 1017.3 |
| 20260507152023 | 58 | 256 | 6.1 | 8.7 | 0.00 | 0.00 | 0.00 | 65 | 1017.7 |
| 20260507151519 | 58 | 269 | 9.6 | 12.2 | 0.00 | 0.00 | 0.00 | 64 | 1017.3 |
| 20260507151016 | 57 | 197 | 6.1 | 9.6 | 0.00 | 0.00 | 0.00 | 65 | 1017.7 |
| 20260507150513 | 57 | 226 | 7.8 | 11.3 | 0.00 | 0.00 | 0.00 | 65 | 1017.7 |
| 20260507150010 | 57 | 228 | 3.5 | 4.3 | 0.00 | 0.00 | 0.00 | 66 | 1017.7 |
| 20260507145505 | 57 | 237 | 5.2 | 7.0 | 0.00 | 0.00 | 0.00 | 66 | 1017.7 |
| 20260507145003 | 57 | 218 | 6.1 | 7.0 | 0.00 | 0.00 | 0.00 | 66 | 1017.3 |
| 20260507144459 | 57 | 216 | 2.6 | 4.3 | 0.00 | 0.00 | 0.00 | 66 | 1017.7 |
| 20260507143956 | 57 | 208 | 5.2 | 7.0 | 0.00 | 0.00 | 0.00 | 66 | 1017.7 |
| 20260507143454 | 56 | 241 | 6.1 | 7.8 | 0.00 | 0.00 | 0.00 | 66 | 1017.3 |
| 20260507142950 | 56 | 204 | 6.1 | 8.7 | 0.00 | 0.00 | 0.00 | 66 | 1017.7 |
| 20260507142446 | 56 | 286 | 5.2 | 6.1 | 0.00 | 0.00 | 0.00 | 67 | 1017.7 |
| 20260507141943 | 55 | 234 | 4.3 | 6.1 | 0.00 | 0.00 | 0.00 | 67 | 1017.7 |
| 20260507141439 | 55 | 223 | 5.2 | 7.8 | 0.00 | 0.00 | 0.00 | 68 | 1017.3 |
| 20260507140936 | 55 | 197 | 4.3 | 5.2 | 0.00 | 0.00 | 0.00 | 68 | 1017.7 |
| 20260507140433 | 55 | 204 | 3.5 | 5.2 | 0.00 | 0.00 | 0.00 | 69 | 1017.7 |
| 20260507135931 | 54 | 188 | 1.7 | 2.6 | 0.00 | 0.00 | 0.00 | 70 | 1017.7 |
| 20260507135427 | 54 | 185 | 5.2 | 7.0 | 0.00 | 0.00 | 0.00 | 71 | 1017.7 |
| 20260507134924 | 53 | 245 | 4.3 | 5.2 | 0.00 | 0.00 | 0.00 | 72 | 1018.1 |
| 20260507134421 | 53 | 194 | 3.5 | 4.3 | 0.00 | 0.00 | 0.00 | 73 | 1017.7 |
| 20260507133916 | 53 | 241 | 2.6 | 4.3 | 0.00 | 0.00 | 0.00 | 74 | 1018.1 |
| 20260507133412 | 52 | 224 | 4.3 | 6.1 | 0.00 | 0.00 | 0.00 | 75 | 1017.7 |
| 20260507132906 | 52 | 208 | 2.6 | 4.3 | 0.00 | 0.00 | 0.00 | 75 | 1017.7 |
| 20260507132402 | 51 | 189 | 4.3 | 5.2 | 0.00 | 0.00 | 0.00 | 76 | 1018.1 |
| 20260507131858 | 51 | 178 | 1.7 | 1.7 | 0.00 | 0.00 | 0.00 | 77 | 1018.1 |
| 20260507131355 | 50 | 208 | 3.5 | 4.3 | 0.00 | 0.00 | 0.00 | 77 | 1017.7 |
| 20260507130852 | 50 | 196 | 4.3 | 7.0 | 0.00 | 0.00 | 0.00 | 77 | 1018.1 |
| 20260507130349 | 49 | 173 | 2.6 | 2.6 | 0.00 | 0.00 | 0.00 | 78 | 1017.7 |
| 20260507125848 | 49 | 200 | 3.5 | 4.3 | 0.00 | 0.00 | 0.00 | 79 | 1017.7 |
| 20260507125345 | 48 | 205 | 2.6 | 2.6 | 0.00 | 0.00 | 0.00 | 79 | 1018.1 |
| 20260507124843 | 48 | 195 | 2.6 | 2.6 | 0.00 | 0.00 | 0.00 | 79 | 1018.1 |
| 20260507124338 | 47 | 195 | 2.6 | 4.3 | 0.00 | 0.00 | 0.00 | 79 | 1018.1 |
| 20260507123837 | 47 | 205 | 4.3 | 6.1 | 0.00 | 0.00 | 0.00 | 79 | 1017.7 |
| 20260507123334 | 46 | 197 | 2.6 | 2.6 | 0.00 | 0.00 | 0.00 | 80 | 1018.1 |
| 20260507122830 | 46 | 194 | 3.5 | 4.3 | 0.00 | 0.00 | 0.00 | 80 | 1017.7 |
| 20260507122326 | 46 | 171 | 1.7 | 1.7 | 0.00 | 0.00 | 0.00 | 81 | 1018.1 |
| 20260507121823 | 45 | 179 | 0.9 | 0.9 | 0.00 | 0.00 | 0.00 | 81 | 1018.1 |
| 20260507121318 | 45 | 213 | 2.6 | 2.6 | 0.00 | 0.00 | 0.00 | 81 | 1017.7 |
| 20260507120814 | 44 | 183 | 1.7 | 2.6 | 0.00 | 0.00 | 0.00 | 82 | 1018.1 |
| 20260507120311 | 44 | 184 | 4.3 | 6.1 | 0.00 | 0.00 | 0.00 | 82 | 1018.1 |
| 20260507115807 | 44 | 179 | 3.5 | 5.2 | 0.00 | 0.00 | 0.00 | 82 | 1018.1 |
| 20260507115306 | 44 | 169 | 2.6 | 4.3 | 0.00 | 0.00 | 0.00 | 82 | 1018.1 |
| 20260507114759 | 44 | 161 | 2.6 | 2.6 | 0.00 | 0.00 | 0.00 | 82 | 1017.7 |
| 20260507114256 | 44 | 186 | 3.5 | 4.3 | 0.00 | 0.00 | 0.00 | 82 | 1018.1 |
| 20260507113754 | 44 | 190 | 3.5 | 5.2 | 0.00 | 0.00 | 0.00 | 82 | 1017.7 |
| 20260507113250 | 44 | 193 | 4.3 | 6.1 | 0.00 | 0.00 | 0.00 | 81 | 1018.1 |
| 20260507112748 | 44 | 186 | 5.2 | 7.0 | 0.00 | 0.00 | 0.00 | 81 | 1018.1 |
| 20260507112244 | 44 | 191 | 6.1 | 7.8 | 0.00 | 0.00 | 0.00 | 81 | 1017.7 |
| 20260507111743 | 44 | 204 | 5.2 | 6.1 | 0.00 | 0.00 | 0.00 | 80 | 1017.7 |
| 20260507111239 | 44 | 177 | 2.6 | 4.3 | 0.00 | 0.00 | 0.00 | 81 | 1017.7 |
| 20260507110735 | 44 | 197 | 5.2 | 7.0 | 0.00 | 0.00 | 0.00 | 81 | 1017.7 |
| 20260507110232 | 44 | 201 | 6.1 | 7.8 | 0.00 | 0.00 | 0.00 | 80 | 1017.7 |
| 20260507105728 | 44 | 208 | 6.1 | 7.0 | 0.00 | 0.00 | 0.00 | 80 | 1017.7 |
| 20260507105224 | 44 | 177 | 5.2 | 7.0 | 0.00 | 0.00 | 0.00 | 80 | 1017.7 |
| 20260507104722 | 44 | 198 | 6.1 | 9.6 | 0.00 | 0.00 | 0.00 | 80 | 1017.7 |
| 20260507104219 | 44 | 186 | 3.5 | 4.3 | 0.00 | 0.00 | 0.00 | 80 | 1017.3 |
| 20260507103714 | 44 | 177 | 3.5 | 4.3 | 0.00 | 0.00 | 0.00 | 80 | 1017.7 |
| 20260507103205 | 45 | 169 | 3.5 | 4.3 | 0.00 | 0.00 | 0.00 | 79 | 1018.1 |
| 20260507102702 | 45 | 189 | 4.3 | 6.1 | 0.00 | 0.00 | 0.00 | 79 | 1018.1 |
| 20260507102158 | 45 | 186 | 2.6 | 4.3 | 0.00 | 0.00 | 0.00 | 79 | 1017.7 |
| 20260507101654 | 45 | 187 | 2.6 | 2.6 | 0.00 | 0.00 | 0.00 | 78 | 1017.7 |
| 20260507101150 | 45 | 194 | 3.5 | 6.1 | 0.00 | 0.00 | 0.00 | 77 | 1017.7 |
| 20260507100648 | 46 | 170 | 1.7 | 1.7 | 0.00 | 0.00 | 0.00 | 77 | 1017.7 |
| 20260507100146 | 46 | 194 | 2.6 | 2.6 | 0.00 | 0.00 | 0.00 | 76 | 1017.7 |
| 20260507095643 | 46 | 200 | 2.6 | 4.3 | 0.00 | 0.00 | 0.00 | 76 | 1017.7 |
| 20260507095140 | 46 | 186 | 1.7 | 1.7 | 0.00 | 0.00 | 0.00 | 76 | 1017.7 |
| 20260507094636 | 46 | 172 | 1.7 | 1.7 | 0.00 | 0.00 | 0.00 | 76 | 1018.1 |
| 20260507094133 | 46 | 178 | 2.6 | 2.6 | 0.00 | 0.00 | 0.00 | 75 | 1017.7 |
| 20260507093630 | 46 | 205 | 2.6 | 2.6 | 0.00 | 0.00 | 0.00 | 75 | 1017.7 |
| 20260507093129 | 46 | 203 | 2.6 | 2.6 | 0.00 | 0.00 | 0.00 | 75 | 1018.1 |
| 20260507092626 | 46 | 186 | 1.7 | 1.7 | 0.00 | 0.00 | 0.00 | 75 | 1018.1 |
| 20260507092122 | 46 | 177 | 2.6 | 2.6 | 0.00 | 0.00 | 0.00 | 75 | 1017.7 |
| 20260507091619 | 46 | 187 | 1.7 | 1.7 | 0.00 | 0.00 | 0.00 | 74 | 1018.1 |
| 20260507091114 | 46 | 190 | 2.6 | 2.6 | 0.00 | 0.00 | 0.00 | 74 | 1018.1 |
| 20260507090610 | 46 | 179 | 1.7 | 1.7 | 0.00 | 0.00 | 0.00 | 74 | 1018.5 |
| 20260507090108 | 46 | 172 | 1.7 | 1.7 | 0.00 | 0.00 | 0.00 | 74 | 1018.1 |
| 20260507085604 | 46 | 172 | 1.7 | 1.7 | 0.00 | 0.00 | 0.00 | 74 | 1018.1 |
| 20260507085101 | 46 | 167 | 1.7 | 1.7 | 0.00 | 0.00 | 0.00 | 74 | 1018.1 |
| 20260507084558 | 46 | 190 | 1.7 | 2.6 | 0.00 | 0.00 | 0.00 | 74 | 1018.1 |
| 20260507084055 | 46 | 176 | 0.9 | 1.7 | 0.00 | 0.00 | 0.00 | 73 | 1018.1 |
| 20260507083551 | 46 | 177 | 1.7 | 1.7 | 0.00 | 0.00 | 0.00 | 73 | 1018.5 |
| 20260507083048 | 46 | 167 | 0.9 | 1.7 | 0.00 | 0.00 | 0.00 | 73 | 1018.1 |
| 20260507082544 | 46 | 176 | 0.9 | 1.7 | 0.00 | 0.00 | 0.00 | 73 | 1018.1 |
| 20260507082041 | 46 | 167 | 0.9 | 1.7 | 0.00 | 0.00 | 0.00 | 73 | 1018.1 |
| 20260507081537 | 46 | 179 | 1.7 | 1.7 | 0.00 | 0.00 | 0.00 | 73 | 1018.1 |
| 20260507081034 | 46 | 183 | 0.9 | 1.7 | 0.00 | 0.00 | 0.00 | 73 | 1018.1 |
| 20260507080530 | 46 | 189 | 0.9 | 1.7 | 0.00 | 0.00 | 0.00 | 73 | 1018.1 |
| 20260507080026 | 46 | 185 | 2.6 | 2.6 | 0.00 | 0.00 | 0.00 | 73 | 1018.1 |
| 20260507075522 | 46 | 187 | 1.7 | 1.7 | 0.00 | 0.00 | 0.00 | 73 | 1018.5 |
| 20260507075019 | 47 | 165 | 0.9 | 1.7 | 0.00 | 0.00 | 0.00 | 73 | 1018.1 |
| 20260507074515 | 47 | 174 | 1.7 | 1.7 | 0.00 | 0.00 | 0.00 | 72 | 1018.5 |
| 20260507074014 | 47 | 199 | 2.6 | 2.6 | 0.00 | 0.00 | 0.00 | 71 | 1018.1 |
| 20260507073510 | 47 | 185 | 1.7 | 1.7 | 0.00 | 0.00 | 0.00 | 70 | 1018.5 |
| 20260507073006 | 47 | 167 | 0.9 | 0.9 | 0.00 | 0.00 | 0.00 | 70 | 1018.5 |
| 20260507072504 | 48 | 173 | 1.7 | 1.7 | 0.00 | 0.00 | 0.00 | 69 | 1018.5 |
| 20260507072001 | 48 | 166 | 0.9 | 1.7 | 0.00 | 0.00 | 0.00 | 69 | 1018.1 |
| 20260507071458 | 48 | 156 | 0.9 | 0.9 | 0.00 | 0.00 | 0.00 | 69 | 1018.5 |
| 20260507070954 | 48 | 161 | 0.9 | 0.9 | 0.00 | 0.00 | 0.00 | 68 | 1018.5 |
| 20260507070452 | 48 | 177 | 2.6 | 5.2 | 0.00 | 0.00 | 0.00 | 68 | 1018.5 |
| 20260507065949 | 48 | 191 | 2.6 | 2.6 | 0.00 | 0.00 | 0.00 | 67 | 1018.5 |
| 20260507065445 | 48 | 192 | 4.3 | 5.2 | 0.00 | 0.00 | 0.00 | 67 | 1018.8 |
| 20260507064943 | 48 | 192 | 6.1 | 7.8 | 0.00 | 0.00 | 0.00 | 67 | 1018.8 |
| 20260507064441 | 48 | 166 | 2.6 | 4.3 | 0.00 | 0.00 | 0.00 | 68 | 1018.5 |
| 20260507063938 | 48 | 163 | 2.6 | 2.6 | 0.00 | 0.00 | 0.00 | 67 | 1018.8 |
| 20260507063435 | 49 | 189 | 6.1 | 7.0 | 0.00 | 0.00 | 0.00 | 66 | 1018.8 |
| 20260507062932 | 49 | 179 | 2.6 | 4.3 | 0.00 | 0.00 | 0.00 | 66 | 1018.8 |
| 20260507062429 | 49 | 152 | 1.7 | 2.6 | 0.00 | 0.00 | 0.00 | 66 | 1018.8 |
| 20260507061926 | 49 | 155 | 0.9 | 0.9 | 0.00 | 0.00 | 0.00 | 67 | 1018.8 |
| 20260507061424 | 49 | 157 | 1.7 | 1.7 | 0.00 | 0.00 | 0.00 | 66 | 1019.1 |
| 20260507060923 | 49 | 167 | 2.6 | 4.3 | 0.00 | 0.00 | 0.00 | 65 | 1019.1 |
| 20260507060419 | 49 | 158 | 0.9 | 0.9 | 0.00 | 0.00 | 0.00 | 64 | 1018.8 |
| 20260507055916 | 49 | 164 | 2.6 | 2.6 | 0.00 | 0.00 | 0.00 | 64 | 1018.5 |
| 20260507055410 | 50 | 164 | 2.6 | 2.6 | 0.00 | 0.00 | 0.00 | 64 | 1018.8 |
| 20260507054902 | 50 | 186 | 4.3 | 5.2 | 0.00 | 0.00 | 0.00 | 63 | 1018.5 |
| 20260507054358 | 50 | 173 | 2.6 | 5.2 | 0.00 | 0.00 | 0.00 | 63 | 1018.8 |
| 20260507053856 | 50 | 160 | 2.6 | 4.3 | 0.00 | 0.00 | 0.00 | 62 | 1018.8 |
| 20260507053353 | 50 | 170 | 2.6 | 2.6 | 0.00 | 0.00 | 0.00 | 62 | 1018.8 |
| 20260507052852 | 50 | 164 | 1.7 | 2.6 | 0.00 | 0.00 | 0.00 | 61 | 1018.8 |
| 20260507052349 | 50 | 179 | 2.6 | 4.3 | 0.00 | 0.00 | 0.00 | 61 | 1018.8 |
| 20260507051846 | 50 | 195 | 5.2 | 6.1 | 0.00 | 0.00 | 0.00 | 61 | 1018.8 |
| 20260507051344 | 50 | 165 | 2.6 | 4.3 | 0.00 | 0.00 | 0.00 | 61 | 1018.8 |
| 20260507050840 | 50 | 193 | 5.2 | 6.1 | 0.00 | 0.00 | 0.00 | 61 | 1018.8 |
| 20260507050337 | 50 | 194 | 5.2 | 6.1 | 0.00 | 0.00 | 0.00 | 62 | 1018.5 |
| 20260507045833 | 50 | 171 | 4.3 | 5.2 | 0.00 | 0.00 | 0.00 | 62 | 1018.8 |
| 20260507045330 | 50 | 180 | 2.6 | 4.3 | 0.00 | 0.00 | 0.00 | 62 | 1019.1 |
| 20260507044827 | 50 | 183 | 3.5 | 5.2 | 0.00 | 0.00 | 0.00 | 62 | 1018.8 |
| 20260507044324 | 50 | 187 | 1.7 | 2.6 | 0.00 | 0.00 | 0.00 | 62 | 1018.8 |
| 20260507043820 | 50 | 180 | 1.7 | 1.7 | 0.00 | 0.00 | 0.00 | 62 | 1018.8 |
| 20260507043316 | 50 | 174 | 1.7 | 1.7 | 0.00 | 0.00 | 0.00 | 63 | 1018.8 |
| 20260507042813 | 50 | 160 | 0.9 | 0.9 | 0.00 | 0.00 | 0.00 | 63 | 1019.1 |
| 20260507042308 | 50 | 159 | 0.9 | 0.9 | 0.00 | 0.00 | 0.00 | 62 | 1019.1 |
| 20260507041806 | 50 | 169 | 1.7 | 1.7 | 0.00 | 0.00 | 0.00 | 61 | 1018.8 |
| 20260507041302 | 50 | 181 | 2.6 | 2.6 | 0.00 | 0.00 | 0.00 | 62 | 1018.5 |
| 20260507040759 | 50 | 185 | 1.7 | 1.7 | 0.00 | 0.00 | 0.00 | 63 | 1018.8 |
| 20260507040255 | 50 | 196 | 2.6 | 2.6 | 0.00 | 0.00 | 0.00 | 64 | 1018.8 |
| 20260507035751 | 50 | 184 | 1.7 | 2.6 | 0.00 | 0.00 | 0.00 | 66 | 1019.1 |
| 20260507035247 | 50 | 156 | 0.9 | 0.9 | 0.00 | 0.00 | 0.00 | 67 | 1019.1 |
| 20260507034745 | 50 | 158 | 0.9 | 1.7 | 0.00 | 0.00 | 0.00 | 67 | 1019.1 |
| 20260507034241 | 50 | 152 | 0.9 | 0.9 | 0.00 | 0.00 | 0.00 | 66 | 1019.1 |
| 20260507033740 | 50 | 147 | 0.0 | 0.0 | 0.00 | 0.00 | 0.00 | 65 | 1019.1 |
| 20260507033237 | 50 | 149 | 0.0 | 0.9 | 0.00 | 0.00 | 0.00 | 64 | 1018.8 |
| 20260507032734 | 50 | 153 | 0.9 | 0.9 | 0.00 | 0.00 | 0.00 | 63 | 1019.1 |
| 20260507032230 | 50 | 150 | 0.9 | 0.9 | 0.00 | 0.00 | 0.00 | 63 | 1019.1 |
| 20260507031727 | 50 | 147 | 0.0 | 0.9 | 0.00 | 0.00 | 0.00 | 63 | 1018.8 |
| 20260507031223 | 50 | 143 | 0.0 | 0.0 | 0.00 | 0.00 | 0.00 | 63 | 1018.8 |
| 20260507030720 | 50 | 142 | 0.0 | 0.0 | 0.00 | 0.00 | 0.00 | 63 | 1018.8 |
| 20260507030218 | 50 | 142 | 0.9 | 0.9 | 0.00 | 0.00 | 0.00 | 62 | 1018.8 |
| 20260507025715 | 50 | 141 | 0.0 | 0.9 | 0.00 | 0.00 | 0.00 | 61 | 1018.8 |
| 20260507025212 | 50 | 144 | 0.0 | 0.0 | 0.00 | 0.00 | 0.00 | 62 | 1018.8 |
| 20260507024710 | 51 | 148 | 0.0 | 0.0 | 0.00 | 0.00 | 0.00 | 60 | 1018.8 |
| 20260507024207 | 51 | 148 | 0.0 | 0.0 | 0.00 | 0.00 | 0.00 | 59 | 1018.5 |
| 20260507023702 | 51 | 139 | 0.0 | 0.9 | 0.00 | 0.00 | 0.00 | 59 | 1018.5 |
| 20260507023200 | 51 | 135 | 0.0 | 0.0 | 0.00 | 0.00 | 0.00 | 61 | 1018.8 |
| 20260507022656 | 51 | 135 | 0.0 | 0.0 | 0.00 | 0.00 | 0.00 | 61 | 1018.8 |
| 20260507022152 | 51 | 110 | 0.0 | 0.0 | 0.00 | 0.00 | 0.00 | 58 | 1018.5 |
| 20260507021649 | 52 | 110 | 0.0 | 0.0 | 0.00 | 0.00 | 0.00 | 58 | 1018.5 |
| 20260507021144 | 52 | 137 | 0.9 | 0.9 | 0.00 | 0.00 | 0.00 | 56 | 1018.5 |
| 20260507020643 | 52 | 135 | 0.9 | 1.7 | 0.00 | 0.00 | 0.00 | 56 | 1018.5 |
| 20260507020138 | 52 | 140 | 0.0 | 0.0 | 0.00 | 0.00 | 0.00 | 55 | 1018.5 |
| 20260507015637 | 52 | 139 | 0.0 | 0.0 | 0.00 | 0.00 | 0.00 | 55 | 1018.5 |
| 20260507015134 | 53 | 139 | 0.0 | 0.0 | 0.00 | 0.00 | 0.00 | 54 | 1018.5 |
| 20260507014631 | 54 | 139 | 0.0 | 0.0 | 0.00 | 0.00 | 0.00 | 50 | 1018.1 |
| 20260507014127 | 54 | 140 | 0.0 | 0.0 | 0.00 | 0.00 | 0.00 | 48 | 1018.5 |
| 20260507013624 | 55 | 124 | 0.9 | 1.7 | 0.00 | 0.00 | 0.00 | 47 | 1018.1 |
| 20260507013120 | 55 | 140 | 0.0 | 0.9 | 0.00 | 0.00 | 0.00 | 48 | 1018.5 |
| 20260507012618 | 55 | 139 | 0.9 | 0.9 | 0.00 | 0.00 | 0.00 | 48 | 1018.5 |
| 20260507012113 | 55 | 133 | 0.0 | 0.0 | 0.00 | 0.00 | 0.00 | 47 | 1018.1 |
| 20260507011612 | 55 | 125 | 1.7 | 2.6 | 0.00 | 0.00 | 0.00 | 46 | 1018.1 |
| 20260507011108 | 55 | 125 | 0.9 | 0.9 | 0.00 | 0.00 | 0.00 | 46 | 1018.1 |
| 20260507010603 | 56 | 131 | 0.0 | 0.0 | 0.00 | 0.00 | 0.00 | 48 | 1017.7 |
| 20260507010058 | 56 | 129 | 0.0 | 0.9 | 0.00 | 0.00 | 0.00 | 47 | 1017.7 |
| 20260507005556 | 57 | 132 | 0.9 | 0.9 | 0.00 | 0.00 | 0.00 | 45 | 1018.1 |
| 20260507005052 | 57 | 51 | 2.6 | 2.6 | 0.00 | 0.00 | 0.00 | 44 | 1017.7 |
| 20260507004549 | 57 | 337 | 1.7 | 2.6 | 0.00 | 0.00 | 0.00 | 44 | 1018.1 |
| 20260507004047 | 57 | 309 | 4.3 | 5.2 | 0.00 | 0.00 | 0.00 | 42 | 1018.1 |
| 20260507003543 | 58 | 302 | 4.3 | 5.2 | 0.00 | 0.00 | 0.00 | 40 | 1018.1 |
| 20260507003038 | 59 | 315 | 2.6 | 2.6 | 0.00 | 0.00 | 0.00 | 40 | 1017.7 |
| 20260507002535 | 59 | 309 | 2.6 | 2.6 | 0.00 | 0.00 | 0.00 | 40 | 1017.7 |
| 20260507002030 | 59 | 104 | 1.7 | 1.7 | 0.00 | 0.00 | 0.00 | 39 | 1018.1 |
| 20260507001527 | 59 | 356 | 2.6 | 2.6 | 0.00 | 0.00 | 0.00 | 39 | 1017.7 |
| 20260507001019 | 59 | 328 | 2.6 | 2.6 | 0.00 | 0.00 | 0.00 | 39 | 1017.7 |
| 20260507000515 | 59 | 357 | 2.6 | 4.3 | 0.00 | 0.00 | 0.00 | 39 | 1017.7 |
| 20260507000011 | 59 | 10 | 2.6 | 2.6 | 0.00 | 0.00 | 0.00 | 38 | 1017.7 |
| 20260506235508 | 59 | 9 | 2.6 | 2.6 | 0.00 | 0.00 | 0.00 | 38 | 1017.7 |
| 20260506235004 | 59 | 28 | 2.6 | 2.6 | 0.00 | 0.00 | 0.00 | 37 | 1018.1 |
| 20260506234502 | 59 | 353 | 2.6 | 2.6 | 0.00 | 0.00 | 0.00 | 38 | 1018.1 |
| 20260506233959 | 59 | 40 | 2.6 | 2.6 | 0.00 | 0.00 | 0.00 | 37 | 1017.7 |
| 20260506233455 | 59 | 12 | 3.5 | 4.3 | 0.00 | 0.00 | 0.00 | 38 | 1018.1 |
| 20260506232952 | 60 | 68 | 4.3 | 6.1 | 0.00 | 0.00 | 0.00 | 38 | 1017.7 |
| 20260506232448 | 60 | 69 | 1.7 | 1.7 | 0.00 | 0.00 | 0.00 | 39 | 1017.7 |
| 20260506231944 | 60 | 23 | 3.5 | 4.3 | 0.00 | 0.00 | 0.00 | 38 | 1017.7 |
| 20260506231441 | 60 | 4 | 4.3 | 5.2 | 0.00 | 0.00 | 0.00 | 38 | 1018.1 |
| 20260506230938 | 59 | 276 | 3.5 | 4.3 | 0.00 | 0.00 | 0.00 | 36 | 1018.1 |
| 20260506230435 | 60 | 354 | 5.2 | 7.0 | 0.00 | 0.00 | 0.00 | 38 | 1018.1 |
| 20260506225932 | 59 | 0 | 5.2 | 7.0 | 0.00 | 0.00 | 0.00 | 39 | 1017.7 |
| 20260506225429 | 60 | 40 | 4.3 | 4.3 | 0.00 | 0.00 | 0.00 | 38 | 1017.7 |
| 20260506224926 | 60 | 6 | 4.3 | 5.2 | 0.00 | 0.00 | 0.00 | 37 | 1017.7 |
| 20260506224423 | 60 | 50 | 2.6 | 2.6 | 0.00 | 0.00 | 0.00 | 39 | 1017.7 |
| 20260506223919 | 60 | 9 | 4.3 | 6.1 | 0.00 | 0.00 | 0.00 | 38 | 1017.7 |
| 20260506223415 | 60 | 57 | 5.2 | 6.1 | 0.00 | 0.00 | 0.00 | 37 | 1017.7 |
| 20260506222912 | 60 | 37 | 2.6 | 2.6 | 0.00 | 0.00 | 0.00 | 38 | 1017.7 |
| 20260506222409 | 60 | 45 | 2.6 | 2.6 | 0.00 | 0.00 | 0.00 | 39 | 1018.1 |
| 20260506221906 | 60 | 40 | 2.6 | 4.3 | 0.00 | 0.00 | 0.00 | 40 | 1018.1 |
| 20260506221402 | 60 | 95 | 1.7 | 1.7 | 0.00 | 0.00 | 0.00 | 37 | 1017.7 |
| 20260506220854 | 60 | 53 | 2.6 | 5.2 | 0.00 | 0.00 | 0.00 | 39 | 1018.1 |
| 20260506220350 | 59 | 22 | 3.5 | 4.3 | 0.00 | 0.00 | 0.00 | 39 | 1017.7 |
| 20260506215847 | 59 | 295 | 6.1 | 7.0 | 0.00 | 0.00 | 0.00 | 39 | 1018.5 |
| 20260506215342 | 60 | 64 | 2.6 | 2.6 | 0.00 | 0.00 | 0.00 | 38 | 1018.1 |
| 20260506214839 | 60 | 84 | 2.6 | 4.3 | 0.00 | 0.00 | 0.00 | 39 | 1018.1 |
| 20260506214336 | 60 | 95 | 3.5 | 5.2 | 0.00 | 0.00 | 0.00 | 38 | 1018.5 |
| 20260506213834 | 59 | 289 | 4.3 | 5.2 | 0.00 | 0.00 | 0.00 | 38 | 1018.1 |
| 20260506213331 | 59 | 3 | 5.2 | 6.1 | 0.00 | 0.00 | 0.00 | 38 | 1018.5 |
| 20260506212828 | 60 | 27 | 4.3 | 5.2 | 0.00 | 0.00 | 0.00 | 38 | 1018.5 |
| 20260506212324 | 60 | 127 | 1.7 | 2.6 | 0.00 | 0.00 | 0.00 | 40 | 1018.5 |
| 20260506211819 | 59 | 20 | 4.3 | 6.1 | 0.00 | 0.00 | 0.00 | 38 | 1018.8 |
| 20260506211315 | 60 | 317 | 4.3 | 6.1 | 0.00 | 0.00 | 0.00 | 38 | 1018.5 |
| 20260506210813 | 60 | 348 | 4.3 | 6.1 | 0.00 | 0.00 | 0.00 | 39 | 1018.8 |
| 20260506210309 | 60 | 54 | 2.6 | 2.6 | 0.00 | 0.00 | 0.00 | 41 | 1018.8 |
| 20260506205807 | 59 | 0 | 4.3 | 7.0 | 0.00 | 0.00 | 0.00 | 39 | 1018.5 |
| 20260506205305 | 59 | 346 | 4.3 | 5.2 | 0.00 | 0.00 | 0.00 | 38 | 1018.8 |
| 20260506204759 | 59 | 42 | 6.1 | 7.0 | 0.00 | 0.00 | 0.00 | 38 | 1018.8 |
| 20260506204257 | 59 | 42 | 3.5 | 5.2 | 0.00 | 0.00 | 0.00 | 41 | 1019.1 |
| 20260506203754 | 59 | 249 | 1.7 | 1.7 | 0.00 | 0.00 | 0.00 | 40 | 1019.1 |
| 20260506203252 | 58 | 12 | 2.6 | 4.3 | 0.00 | 0.00 | 0.00 | 41 | 1019.1 |
| 20260506202748 | 59 | 11 | 4.3 | 6.1 | 0.00 | 0.00 | 0.00 | 40 | 1019.1 |
| 20260506202245 | 58 | 50 | 2.6 | 2.6 | 0.00 | 0.00 | 0.00 | 42 | 1019.1 |
| 20260506201742 | 59 | 354 | 7.0 | 7.8 | 0.00 | 0.00 | 0.00 | 40 | 1019.1 |
| 20260506201238 | 59 | 328 | 4.3 | 5.2 | 0.00 | 0.00 | 0.00 | 40 | 1019.1 |
| 20260506200736 | 59 | 67 | 2.6 | 4.3 | 0.00 | 0.00 | 0.00 | 39 | 1019.1 |
| 20260506200232 | 58 | 350 | 6.1 | 7.0 | 0.00 | 0.00 | 0.00 | 38 | 1019.5 |
| 20260506195728 | 59 | 29 | 2.6 | 2.6 | 0.00 | 0.00 | 0.00 | 39 | 1019.5 |
| 20260506195225 | 61 | 137 | 1.7 | 1.7 | 0.00 | 0.00 | 0.00 | 37 | 1019.5 |
| 20260506194722 | 60 | 131 | 0.9 | 0.9 | 0.00 | 0.00 | 0.00 | 39 | 1019.1 |
| 20260506194219 | 58 | 65 | 2.6 | 2.6 | 0.00 | 0.00 | 0.00 | 41 | 1019.5 |
| 20260506193717 | 58 | 56 | 2.6 | 2.6 | 0.00 | 0.00 | 0.00 | 39 | 1019.5 |
| 20260506193213 | 58 | 113 | 1.7 | 1.7 | 0.00 | 0.00 | 0.00 | 40 | 1019.5 |
| 20260506192709 | 58 | 28 | 0.9 | 2.6 | 0.00 | 0.00 | 0.00 | 39 | 1019.8 |
| 20260506192206 | 58 | 94 | 2.6 | 2.6 | 0.00 | 0.00 | 0.00 | 38 | 1019.5 |
| 20260506191658 | 57 | 5 | 4.3 | 5.2 | 0.00 | 0.00 | 0.00 | 41 | 1019.5 |
| 20260506191153 | 58 | 57 | 2.6 | 4.3 | 0.00 | 0.00 | 0.00 | 41 | 1019.5 |
| 20260506190651 | 57 | 64 | 2.6 | 2.6 | 0.00 | 0.00 | 0.00 | 41 | 1019.5 |
| 20260506190147 | 57 | 358 | 3.5 | 5.2 | 0.00 | 0.00 | 0.00 | 39 | 1019.8 |
| 20260506185645 | 58 | 47 | 2.6 | 2.6 | 0.00 | 0.00 | 0.00 | 40 | 1019.5 |
| 20260506185141 | 58 | 324 | 3.5 | 4.3 | 0.00 | 0.00 | 0.00 | 45 | 1019.5 |
| 20260506184639 | 57 | 107 | 2.6 | 5.2 | 0.00 | 0.00 | 0.00 | 42 | 1019.8 |
| 20260506184136 | 58 | 69 | 4.3 | 5.2 | 0.00 | 0.00 | 0.00 | 41 | 1019.8 |
| 20260506183632 | 57 | 59 | 2.6 | 5.2 | 0.00 | 0.00 | 0.00 | 40 | 1019.8 |
| 20260506183128 | 57 | 90 | 3.5 | 5.2 | 0.00 | 0.00 | 0.00 | 41 | 1019.8 |
| 20260506182626 | 57 | 347 | 3.5 | 5.2 | 0.00 | 0.00 | 0.00 | 39 | 1020.2 |
| 20260506182122 | 56 | 49 | 3.5 | 5.2 | 0.00 | 0.00 | 0.00 | 42 | 1019.8 |
| 20260506181620 | 56 | 3 | 2.6 | 4.3 | 0.00 | 0.00 | 0.00 | 42 | 1020.2 |
| 20260506181117 | 56 | 321 | 3.5 | 4.3 | 0.00 | 0.00 | 0.00 | 43 | 1019.8 |
| 20260506180614 | 55 | 294 | 4.3 | 7.0 | 0.00 | 0.00 | 0.00 | 41 | 1020.2 |
| 20260506180111 | 55 | 81 | 4.3 | 6.1 | 0.00 | 0.00 | 0.00 | 40 | 1019.8 |
| 20260506175607 | 55 | 105 | 2.6 | 2.6 | 0.00 | 0.00 | 0.00 | 43 | 1020.2 |
| 20260506175103 | 55 | 43 | 2.6 | 4.3 | 0.00 | 0.00 | 0.00 | 43 | 1020.2 |
| 20260506174602 | 55 | 65 | 4.3 | 6.1 | 0.00 | 0.00 | 0.00 | 43 | 1020.2 |
| 20260506174058 | 55 | 99 | 1.7 | 2.6 | 0.00 | 0.00 | 0.00 | 42 | 1020.2 |
| 20260506173556 | 55 | 42 | 4.3 | 6.1 | 0.00 | 0.00 | 0.00 | 43 | 1020.2 |
| 20260506173052 | 56 | 17 | 4.3 | 6.1 | 0.00 | 0.00 | 0.00 | 41 | 1020.2 |
| 20260506172550 | 56 | 45 | 3.5 | 4.3 | 0.00 | 0.00 | 0.00 | 44 | 1020.5 |
| 20260506172046 | 55 | 31 | 3.5 | 5.2 | 0.00 | 0.00 | 0.00 | 40 | 1020.2 |
| 20260506171543 | 56 | 87 | 1.7 | 2.6 | 0.00 | 0.00 | 0.00 | 42 | 1020.2 |
| 20260506171040 | 56 | 62 | 0.9 | 1.7 | 0.00 | 0.00 | 0.00 | 42 | 1020.2 |
| 20260506170538 | 57 | 327 | 3.5 | 5.2 | 0.00 | 0.00 | 0.00 | 44 | 1020.2 |
| 20260506170030 | 55 | 29 | 2.6 | 2.6 | 0.00 | 0.00 | 0.00 | 43 | 1020.5 |
| 20260506165528 | 55 | 13 | 2.6 | 4.3 | 0.00 | 0.00 | 0.00 | 43 | 1020.2 |
| 20260506165024 | 54 | 22 | 1.7 | 2.6 | 0.00 | 0.00 | 0.00 | 45 | 1020.5 |
| 20260506164521 | 54 | 24 | 5.2 | 7.0 | 0.00 | 0.00 | 0.00 | 44 | 1020.5 |
| 20260506164018 | 54 | 50 | 2.6 | 2.6 | 0.00 | 0.00 | 0.00 | 44 | 1020.2 |
| 20260506163514 | 54 | 100 | 0.9 | 1.7 | 0.00 | 0.00 | 0.00 | 44 | 1020.2 |
| 20260506163010 | 55 | 94 | 1.7 | 2.6 | 0.00 | 0.00 | 0.00 | 45 | 1020.2 |
| 20260506162507 | 55 | 4 | 5.2 | 6.1 | 0.00 | 0.00 | 0.00 | 46 | 1020.2 |
| 20260506162004 | 54 | 73 | 3.5 | 4.3 | 0.00 | 0.00 | 0.00 | 47 | 1020.5 |
| 20260506161501 | 54 | 21 | 2.6 | 4.3 | 0.00 | 0.00 | 0.00 | 46 | 1020.2 |
| 20260506160958 | 54 | 0 | 2.6 | 2.6 | 0.00 | 0.00 | 0.00 | 47 | 1019.8 |
| 20260506160455 | 54 | 6 | 3.5 | 4.3 | 0.00 | 0.00 | 0.00 | 45 | 1019.8 |
| 20260506155952 | 54 | 79 | 0.9 | 0.9 | 0.00 | 0.00 | 0.00 | 47 | 1019.8 |